Time;durP1;ratioP1;P1;durP2;ratioP2;P2;SDS_P1;SDS_P2;PMS_P1;PMS_P2;Temp;Humidity;BMP_temperature;BMP_pressure;BME280_temperature;BME280_humidity;BME280_pressure;Samples;Min_cycle;Max_cycle;Signal;HPM_P1;HPM_P2
2022/04/24 00:00:18;;;;;;;39.60;23.20;;;;;;;9.73;100.00;94529.09;4951706;28;20039;-65
2022/04/24 00:02:44;;;;;;;37.90;22.60;;;;;;;9.77;100.00;94538.00;4960117;28;20039;-67
2022/04/24 00:05:10;;;;;;;40.50;23.80;;;;;;;9.75;100.00;94540.38;4944256;28;20047;-66
2022/04/24 00:07:36;;;;;;;38.30;23.15;;;;;;;9.73;100.00;94525.59;4958476;28;20039;-66
2022/04/24 00:10:02;;;;;;;41.20;22.48;;;;;;;9.82;100.00;94525.06;4960581;28;20042;-65
2022/04/24 00:12:27;;;;;;;34.90;19.90;;;;;;;9.94;100.00;94535.41;4937795;28;20051;-66
2022/04/24 00:14:53;;;;;;;37.53;21.67;;;;;;;9.90;100.00;94527.28;4956336;23;109636;-72
2022/04/24 00:17:20;;;;;;;34.42;20.50;;;;;;;10.04;100.00;94526.25;4955363;28;20054;-71
2022/04/24 00:19:48;;;;;;;38.20;22.02;;;;;;;10.16;100.00;94532.34;4970985;28;20543;-71
2022/04/24 00:22:14;;;;;;;34.05;18.55;;;;;;;10.20;100.00;94538.50;4962082;28;20133;-72
2022/04/24 00:24:39;;;;;;;32.03;19.48;;;;;;;10.15;100.00;94539.75;4983883;28;20161;-71
2022/04/24 00:27:07;;;;;;;35.78;21.30;;;;;;;10.18;100.00;94547.13;4971349;28;20482;-72
2022/04/24 00:29:33;;;;;;;32.78;19.30;;;;;;;10.12;100.00;94546.84;4975671;28;20042;-71
2022/04/24 00:31:58;;;;;;;31.80;19.80;;;;;;;10.18;100.00;94541.66;4966564;28;20451;-71
2022/04/24 00:34:23;;;;;;;63.88;34.85;;;;;;;10.25;100.00;94536.06;4978791;28;20165;-71
2022/04/24 00:36:49;;;;;;;99.00;48.20;;;;;;;10.41;100.00;94553.81;4962840;28;20043;-71
2022/04/24 00:39:15;;;;;;;38.30;22.88;;;;;;;10.26;100.00;94573.19;4957747;28;20117;-70
2022/04/24 00:41:48;;;;;;;38.85;22.77;;;;;;;10.04;100.00;94580.94;4959457;28;20046;-71
2022/04/24 00:44:18;;;;;;;43.40;24.98;;;;;;;10.04;100.00;94594.63;4973615;28;20134;-72
2022/04/24 00:46:53;;;;;;;36.35;22.30;;;;;;;10.02;100.00;94594.28;4983078;28;20208;-70
2022/04/24 00:49:19;;;;;;;33.25;20.42;;;;;;;9.92;100.00;94600.66;4977945;28;20042;-71
2022/04/24 00:51:44;;;;;;;36.45;22.65;;;;;;;9.84;100.00;94632.03;4960136;28;20404;-71
2022/04/24 00:54:11;;;;;;;39.70;23.63;;;;;;;9.88;100.00;94643.69;4947817;28;20057;-71
2022/04/24 00:56:40;;;;;;;39.03;23.10;;;;;;;9.84;100.00;94665.63;4964745;28;20535;-70
2022/04/24 00:59:08;;;;;;;40.38;22.88;;;;;;;9.74;100.00;94667.31;4957618;28;20673;-73
2022/04/24 01:01:35;;;;;;;38.47;21.02;;;;;;;9.77;100.00;94676.66;4980651;28;20046;-70
2022/04/24 01:04:02;;;;;;;38.72;23.67;;;;;;;9.71;100.00;94664.63;4968683;28;20055;-71
2022/04/24 01:06:31;;;;;;;41.85;23.60;;;;;;;9.86;100.00;94665.97;4952872;28;20051;-71
2022/04/24 01:09:13;;;;;;;37.30;22.90;;;;;;;10.04;100.00;94667.69;4984290;28;20104;-70
2022/04/24 01:11:39;;;;;;;35.00;21.13;;;;;;;10.00;100.00;94675.19;4967926;28;20082;-70
2022/04/24 01:14:05;;;;;;;37.42;21.83;;;;;;;10.06;100.00;94690.72;4941638;28;20050;-71
2022/04/24 01:16:32;;;;;;;39.60;23.20;;;;;;;9.96;100.00;94697.13;4962408;28;20431;-70
2022/04/24 01:18:58;;;;;;;44.28;23.17;;;;;;;9.91;100.00;94692.09;4945691;28;20042;-69
2022/04/24 01:21:23;;;;;;;36.65;21.60;;;;;;;10.02;100.00;94700.94;4958472;28;20180;-68
2022/04/24 01:23:49;;;;;;;37.50;22.75;;;;;;;10.11;100.00;94692.22;4967566;28;20063;-65
2022/04/24 01:26:15;;;;;;;37.97;22.17;;;;;;;10.01;100.00;94704.06;4963577;28;20071;-66
2022/04/24 01:28:40;;;;;;;37.15;21.48;;;;;;;9.99;100.00;94717.38;4964080;28;20047;-68
2022/04/24 01:31:05;;;;;;;36.05;21.50;;;;;;;9.97;100.00;94744.38;4956416;28;20097;-67
2022/04/24 01:33:31;;;;;;;38.90;22.73;;;;;;;9.90;100.00;94750.69;4942969;29;20047;-64
2022/04/24 01:35:57;;;;;;;41.08;23.83;;;;;;;9.72;100.00;94753.66;4964225;28;20507;-66
2022/04/24 01:38:23;;;;;;;37.45;22.60;;;;;;;9.67;100.00;94754.09;4976943;28;20100;-64
2022/04/24 01:40:49;;;;;;;42.10;23.48;;;;;;;9.59;100.00;94767.06;4982209;28;20108;-65
2022/04/24 01:43:16;;;;;;;39.15;23.40;;;;;;;9.64;100.00;94763.91;4959508;28;20038;-67
2022/04/24 01:45:44;;;;;;;41.28;24.10;;;;;;;9.51;100.00;94760.16;4961322;28;20051;-66
2022/04/24 01:48:09;;;;;;;37.00;22.50;;;;;;;9.51;100.00;94763.66;4957678;28;20051;-66
2022/04/24 01:50:35;;;;;;;36.85;22.55;;;;;;;9.63;100.00;94761.56;4944202;28;20110;-65
2022/04/24 01:53:01;;;;;;;44.22;23.08;;;;;;;9.81;100.00;94772.28;4962498;28;20077;-67
2022/04/24 01:55:27;;;;;;;40.92;24.00;;;;;;;9.84;100.00;94768.75;4958683;28;20039;-65
2022/04/24 01:57:52;;;;;;;41.20;23.58;;;;;;;9.84;100.00;94774.22;4966565;28;20143;-69
2022/04/24 02:00:18;;;;;;;40.03;23.10;;;;;;;9.72;100.00;94772.78;4962862;28;20042;-66
2022/04/24 02:02:46;;;;;;;44.33;24.88;;;;;;;9.69;100.00;94779.84;4967101;28;20039;-64
2022/04/24 02:05:12;;;;;;;44.42;26.13;;;;;;;9.65;100.00;94781.84;4962302;28;20046;-66
2022/04/24 02:07:38;;;;;;;49.45;25.50;;;;;;;9.57;100.00;94785.84;4965312;28;20053;-68
2022/04/24 02:10:04;;;;;;;44.10;26.42;;;;;;;9.35;100.00;94793.47;4962632;28;20137;-70
2022/04/24 02:12:30;;;;;;;44.78;26.67;;;;;;;9.23;100.00;94794.75;4966052;28;20055;-65
2022/04/24 02:14:56;;;;;;;45.67;27.60;;;;;;;9.23;100.00;94804.91;4981916;28;21784;-65
2022/04/24 02:17:22;;;;;;;45.05;25.65;;;;;;;9.34;100.00;94811.03;4978600;28;20376;-67
2022/04/24 02:19:47;;;;;;;47.33;26.25;;;;;;;9.34;100.00;94811.81;4965236;28;20134;-66
2022/04/24 02:22:13;;;;;;;47.88;27.02;;;;;;;9.17;100.00;94818.22;4938185;28;20119;-65
2022/04/24 02:24:38;;;;;;;48.28;26.80;;;;;;;9.19;100.00;94816.63;4948437;28;20048;-64
2022/04/24 02:27:04;;;;;;;47.78;26.27;;;;;;;9.22;100.00;94817.00;4952720;28;20039;-70
2022/04/24 02:29:30;;;;;;;32.03;19.10;;;;;;;9.09;100.00;94830.38;4966057;28;20039;-63
2022/04/24 02:31:56;;;;;;;18.23;11.05;;;;;;;8.87;100.00;94835.22;4966107;28;20062;-63
2022/04/24 02:34:22;;;;;;;17.90;9.52;;;;;;;8.88;100.00;94837.56;4960165;28;21173;-66
2022/04/24 02:36:48;;;;;;;9.68;4.90;;;;;;;8.55;100.00;94856.09;4965046;28;20043;-64
2022/04/24 02:39:13;;;;;;;6.53;3.88;;;;;;;8.42;100.00;94849.53;4960111;28;20038;-65
2022/04/24 02:41:39;;;;;;;4.63;2.92;;;;;;;8.32;100.00;94866.69;4964902;28;20112;-65
2022/04/24 02:44:04;;;;;;;5.32;2.80;;;;;;;8.34;100.00;94862.41;4944189;28;20035;-70
2022/04/24 02:46:30;;;;;;;5.38;3.28;;;;;;;8.27;100.00;94867.88;4964669;28;20600;-64
2022/04/24 02:48:55;;;;;;;4.28;1.90;;;;;;;8.18;100.00;94857.41;4964456;28;20078;-65
2022/04/24 02:51:22;;;;;;;4.00;2.13;;;;;;;8.09;100.00;94886.28;4958502;28;20512;-66
2022/04/24 02:53:47;;;;;;;5.32;1.75;;;;;;;8.08;100.00;94892.88;4965530;28;20054;-63
2022/04/24 02:56:13;;;;;;;3.80;1.70;;;;;;;8.09;100.00;94906.13;4957477;28;20047;-67
2022/04/24 02:58:38;;;;;;;2.88;1.55;;;;;;;8.16;100.00;94913.50;4964902;28;20073;-64
2022/04/24 03:01:05;;;;;;;2.80;1.40;;;;;;;8.20;100.00;94911.56;4966454;28;20046;-70
2022/04/24 03:03:30;;;;;;;2.00;1.30;;;;;;;8.14;100.00;94913.91;4965056;28;20074;-62
2022/04/24 03:05:56;;;;;;;2.50;1.52;;;;;;;7.95;100.00;94923.28;4966156;28;20529;-65
2022/04/24 03:08:22;;;;;;;1.67;1.20;;;;;;;8.06;100.00;94911.59;4964004;28;20813;-65
2022/04/24 03:10:47;;;;;;;2.25;1.33;;;;;;;7.95;100.00;94923.28;4965987;28;20082;-66
2022/04/24 03:13:13;;;;;;;4.13;1.52;;;;;;;8.04;100.00;94928.34;4943704;28;20039;-66
2022/04/24 03:15:39;;;;;;;1.67;1.10;;;;;;;7.94;100.00;94932.66;4964117;28;20563;-64
2022/04/24 03:18:05;;;;;;;2.17;1.40;;;;;;;7.93;100.00;94936.53;4960423;28;20449;-68
2022/04/24 03:20:31;;;;;;;2.20;1.30;;;;;;;7.78;100.00;94932.28;4964566;28;20073;-62
2022/04/24 03:22:57;;;;;;;2.03;1.25;;;;;;;7.80;100.00;94922.53;4968974;28;20035;-65
2022/04/24 03:25:23;;;;;;;1.92;1.10;;;;;;;7.88;100.00;94922.53;4976284;28;20563;-66
2022/04/24 03:27:49;;;;;;;2.33;1.00;;;;;;;7.81;100.00;94909.69;4981923;28;20065;-67
2022/04/24 03:30:14;;;;;;;1.90;1.00;;;;;;;7.86;100.00;94903.84;4975850;28;20038;-66
2022/04/24 03:32:40;;;;;;;1.17;0.88;;;;;;;7.83;100.00;94912.78;4977971;28;20451;-66
2022/04/24 03:35:08;;;;;;;1.60;0.88;;;;;;;7.78;100.00;94907.75;4994505;28;20104;-67
2022/04/24 03:37:36;;;;;;;0.90;0.70;;;;;;;7.84;100.00;94904.22;4971026;28;20110;-64
2022/04/24 03:40:03;;;;;;;1.98;0.82;;;;;;;7.81;100.00;94915.13;4964705;28;20102;-64
2022/04/24 03:42:28;;;;;;;0.93;0.50;;;;;;;7.73;100.00;94922.56;4961489;28;20483;-65
2022/04/24 03:44:55;;;;;;;1.15;0.63;;;;;;;7.71;100.00;94914.00;4946740;28;20054;-64
2022/04/24 03:47:21;;;;;;;1.23;0.70;;;;;;;7.66;100.00;94912.44;4958956;28;20086;-66
2022/04/24 03:49:46;;;;;;;0.80;0.68;;;;;;;7.70;100.00;94908.94;4971633;28;20109;-65
2022/04/24 03:52:12;;;;;;;1.52;0.80;;;;;;;7.69;100.00;94902.72;4951027;28;20365;-66
2022/04/24 03:54:38;;;;;;;0.63;0.55;;;;;;;7.65;100.00;94915.53;4942434;28;20428;-65
2022/04/24 03:57:04;;;;;;;9.45;4.88;;;;;;;7.61;100.00;94909.34;4958960;28;20053;-71
2022/04/24 03:59:30;;;;;;;2.90;1.48;;;;;;;7.48;100.00;94911.69;4970995;28;20109;-65
2022/04/24 04:01:55;;;;;;;1.42;0.60;;;;;;;7.57;100.00;94919.47;4975549;28;20137;-66
2022/04/24 04:04:21;;;;;;;2.05;0.85;;;;;;;7.75;100.00;94924.91;4943882;28;20051;-64
2022/04/24 04:06:46;;;;;;;1.00;0.73;;;;;;;7.87;100.00;94927.22;4969833;28;20073;-66
2022/04/24 04:09:12;;;;;;;2.03;0.90;;;;;;;7.66;100.00;94926.06;4966021;28;20596;-65
2022/04/24 04:11:37;;;;;;;1.20;0.80;;;;;;;7.56;100.00;94926.06;4964336;28;20613;-65
2022/04/24 04:14:03;;;;;;;2.10;0.90;;;;;;;7.55;100.00;94930.75;4943596;28;20074;-73
2022/04/24 04:16:29;;;;;;;3.25;0.90;;;;;;;7.56;100.00;94926.88;4961046;28;20650;-63
2022/04/24 04:18:55;;;;;;;1.40;0.80;;;;;;;7.53;100.00;94926.88;4967890;28;20105;-64
2022/04/24 04:21:20;;;;;;;1.35;0.68;;;;;;;7.40;100.00;94937.34;4978067;28;20080;-65
2022/04/24 04:23:46;;;;;;;1.00;0.77;;;;;;;7.43;100.00;94939.31;4971320;28;20120;-69
2022/04/24 04:26:11;;;;;;;0.88;0.70;;;;;;;7.34;100.00;94938.91;4964622;28;20137;-65
2022/04/24 04:28:37;;;;;;;0.65;0.60;;;;;;;7.22;100.00;94938.13;4973093;28;20127;-67
2022/04/24 04:31:03;;;;;;;1.00;0.47;;;;;;;7.32;100.00;94939.31;4964329;28;20048;-69
2022/04/24 04:33:28;;;;;;;2.13;0.57;;;;;;;7.49;100.00;94937.75;4981177;28;20047;-67
2022/04/24 04:35:54;;;;;;;0.60;0.60;;;;;;;7.36;100.00;94934.63;4972313;28;20038;-65
2022/04/24 04:38:19;;;;;;;0.98;0.52;;;;;;;7.39;100.00;94933.84;4942183;28;20050;-63
2022/04/24 04:40:45;;;;;;;0.50;0.50;;;;;;;7.50;100.00;94941.25;4966304;28;20251;-64
2022/04/24 04:43:11;;;;;;;0.55;0.50;;;;;;;7.36;100.00;94939.31;4964737;28;20047;-66
2022/04/24 04:45:36;;;;;;;0.45;0.40;;;;;;;7.39;100.00;94961.09;4946938;28;20077;-63
2022/04/24 04:48:02;;;;;;;0.82;0.52;;;;;;;7.48;100.00;94963.44;4962120;28;20109;-71
2022/04/24 04:50:28;;;;;;;0.57;0.52;;;;;;;7.50;100.00;94968.50;4963136;28;20062;-67
2022/04/24 04:52:53;;;;;;;0.38;0.38;;;;;;;7.57;100.00;94965.78;4972950;28;20039;-65
2022/04/24 04:55:19;;;;;;;0.50;0.50;;;;;;;7.49;100.00;94966.94;4974263;28;20058;-65
2022/04/24 04:57:45;;;;;;;0.50;0.50;;;;;;;7.57;100.00;94963.81;4972118;28;20051;-64
2022/04/24 05:00:13;;;;;;;8.77;3.13;;;;;;;7.57;100.00;94958.38;4963925;28;20038;-66
2022/04/24 05:02:40;;;;;;;1.20;0.80;;;;;;;7.50;100.00;94958.38;4954241;28;20038;-65
2022/04/24 05:05:08;;;;;;;2.15;0.50;;;;;;;7.65;100.00;94961.88;4959097;28;20543;-67
2022/04/24 05:07:35;;;;;;;0.40;0.40;;;;;;;7.67;100.00;94954.09;4945717;28;20043;-65
2022/04/24 05:10:00;;;;;;;0.40;0.40;;;;;;;7.60;100.00;94963.06;4961921;28;20042;-65
2022/04/24 05:12:27;;;;;;;0.77;0.40;;;;;;;7.87;100.00;94970.81;4958918;28;20050;-66
2022/04/24 05:14:59;;;;;;;3.92;0.70;;;;;;;7.89;100.00;94975.91;4964561;28;20045;-65
2022/04/24 05:17:24;;;;;;;2.05;1.02;;;;;;;7.84;100.00;94982.50;4963350;28;20055;-66
2022/04/24 05:19:50;;;;;;;0.80;0.43;;;;;;;7.83;100.00;94989.09;4947488;28;20393;-69
2022/04/24 05:22:16;;;;;;;0.65;0.40;;;;;;;7.77;100.00;94985.22;4939263;28;20137;-67
2022/04/24 05:24:41;;;;;;;0.47;0.43;;;;;;;7.67;100.00;94986.81;4945189;28;20036;-64
2022/04/24 05:27:07;;;;;;;0.38;0.38;;;;;;;7.78;100.00;94984.06;4958980;28;20034;-67
2022/04/24 05:29:32;;;;;;;0.77;0.40;;;;;;;8.01;100.00;95000.00;4948762;28;20043;-67
2022/04/24 05:31:58;;;;;;;1.60;0.63;;;;;;;8.10;100.00;95003.09;4953361;28;20515;-65
2022/04/24 05:34:23;;;;;;;0.95;0.52;;;;;;;7.99;100.00;94999.63;4973326;28;20359;-64
2022/04/24 05:36:49;;;;;;;0.50;0.40;;;;;;;7.78;100.00;95000.44;4982880;28;20047;-66
2022/04/24 05:39:14;;;;;;;1.67;0.40;;;;;;;7.97;100.00;95000.00;4944667;28;20046;-68
2022/04/24 05:41:40;;;;;;;0.40;0.40;;;;;;;7.95;100.00;94996.91;4972183;28;20070;-65
2022/04/24 05:44:05;;;;;;;1.67;0.68;;;;;;;7.85;100.00;95001.19;4971235;28;20561;-65
2022/04/24 05:46:31;;;;;;;0.73;0.63;;;;;;;7.93;100.00;95007.41;4976008;28;20054;-65
2022/04/24 05:48:56;;;;;;;1.92;0.60;;;;;;;7.96;100.00;95014.81;4998194;28;20114;-64
2022/04/24 05:51:22;;;;;;;0.70;0.50;;;;;;;8.03;100.00;95025.72;4995948;28;20085;-63
2022/04/24 05:53:47;;;;;;;0.70;0.50;;;;;;;8.01;100.00;95027.25;4974381;28;20047;-64
2022/04/24 05:56:13;;;;;;;0.40;0.40;;;;;;;7.99;100.00;95029.59;4950996;28;20059;-66
2022/04/24 05:58:38;;;;;;;1.38;0.50;;;;;;;8.00;100.00;95031.19;4971747;28;20039;-62
2022/04/24 06:01:04;;;;;;;1.42;0.60;;;;;;;8.09;100.00;95034.28;4961840;28;20043;-70
2022/04/24 06:03:29;;;;;;;0.95;0.60;;;;;;;8.15;100.00;95040.88;4966164;28;20133;-67
2022/04/24 06:05:55;;;;;;;0.43;0.43;;;;;;;8.09;100.00;95041.69;4963591;28;20055;-65
2022/04/24 06:08:20;;;;;;;0.50;0.50;;;;;;;8.13;100.00;95040.50;4932760;29;20054;-65
2022/04/24 06:10:46;;;;;;;3.13;0.70;;;;;;;8.09;100.00;95041.69;4947080;29;20373;-65
2022/04/24 06:13:11;;;;;;;0.60;0.60;;;;;;;7.96;100.00;95031.19;4955317;28;20133;-64
2022/04/24 06:15:39;;;;;;;0.63;0.45;;;;;;;7.92;100.00;95033.09;4986898;23;20058;-68
2022/04/24 06:18:04;;;;;;;0.70;0.50;;;;;;;8.08;100.00;95029.22;4952349;28;20411;-71
2022/04/24 06:20:30;;;;;;;1.02;0.73;;;;;;;8.11;100.00;95023.75;4964212;28;20043;-69
2022/04/24 06:22:57;;;;;;;0.43;0.43;;;;;;;8.09;100.00;95025.34;4964796;28;20663;-68
2022/04/24 06:25:32;;;;;;;1.10;0.65;;;;;;;8.01;100.00;95028.06;4958665;28;20226;-68
2022/04/24 06:27:58;;;;;;;0.65;0.40;;;;;;;8.25;100.00;95033.88;4961301;28;20089;-69
2022/04/24 06:30:29;;;;;;;1.00;0.60;;;;;;;8.26;100.00;95027.25;4959543;28;20518;-70
2022/04/24 06:32:57;;;;;;;0.68;0.50;;;;;;;8.42;100.00;95035.81;4966244;28;20514;-70
2022/04/24 06:35:23;;;;;;;0.43;0.43;;;;;;;8.49;100.00;95031.53;4958706;28;20543;-70
2022/04/24 06:37:53;;;;;;;0.52;0.45;;;;;;;8.46;100.00;95024.13;4963505;28;20045;-68
2022/04/24 06:40:19;;;;;;;0.68;0.50;;;;;;;8.29;100.00;95029.19;4959388;28;20084;-69
2022/04/24 06:42:52;;;;;;;0.70;0.50;;;;;;;8.32;100.00;95022.97;4964282;28;20098;-68
2022/04/24 06:45:24;;;;;;;0.60;0.52;;;;;;;8.35;100.00;95026.84;4959522;28;20050;-68
2022/04/24 06:47:55;;;;;;;0.50;0.43;;;;;;;8.49;100.00;95028.78;4964441;28;20089;-65
2022/04/24 06:50:22;;;;;;;3.42;2.33;;;;;;;8.49;100.00;95029.56;4957195;28;20289;-69
2022/04/24 06:53:05;;;;;;;4.80;2.33;;;;;;;8.56;100.00;95028.78;4963675;28;20046;-67
2022/04/24 06:55:32;;;;;;;7.35;2.85;;;;;;;8.69;98.95;95038.09;4961986;28;20109;-67
2022/04/24 06:57:59;;;;;;;2.42;1.30;;;;;;;8.84;98.91;95038.84;4962329;28;20484;-68
2022/04/24 07:00:27;;;;;;;3.28;1.17;;;;;;;8.82;98.70;95029.47;4958158;28;20046;-67
2022/04/24 07:02:52;;;;;;;2.40;1.58;;;;;;;9.14;96.25;95043.75;4961730;28;20042;-68
2022/04/24 07:05:23;;;;;;;2.70;1.15;;;;;;;9.09;95.23;95043.41;4956539;28;20046;-68
2022/04/24 07:07:48;;;;;;;2.53;1.25;;;;;;;9.34;94.55;95049.50;4963540;28;20059;-67
2022/04/24 07:10:14;;;;;;;2.50;1.10;;;;;;;9.36;94.69;95047.19;4958763;28;21845;-68
2022/04/24 07:12:48;;;;;;;1.88;0.90;;;;;;;9.60;94.29;95061.09;4964495;28;20049;-67
2022/04/24 07:15:15;;;;;;;2.65;1.75;;;;;;;9.91;90.93;95064.00;4958100;28;20047;-71
2022/04/24 07:17:42;;;;;;;3.42;0.93;;;;;;;10.06;90.17;95064.66;4962631;28;20154;-68
2022/04/24 07:20:11;;;;;;;2.60;0.60;;;;;;;10.14;89.72;95053.25;4956607;28;20043;-68
2022/04/24 07:22:51;;;;;;;1.45;0.40;;;;;;;10.26;88.00;95062.94;4963823;28;20708;-68
2022/04/24 07:25:18;;;;;;;1.42;0.80;;;;;;;10.45;86.84;95053.41;4955858;28;20047;-68
2022/04/24 07:27:44;;;;;;;1.85;0.60;;;;;;;10.49;86.41;95062.34;4962681;28;20074;-68
2022/04/24 07:30:14;;;;;;;0.80;0.47;;;;;;;10.20;89.09;95061.03;4958435;28;20134;-67
2022/04/24 07:32:42;;;;;;;1.55;0.73;;;;;;;10.12;89.13;95060.34;4977740;28;20081;-68
2022/04/24 07:35:15;;;;;;;2.40;0.60;;;;;;;10.21;87.01;95059.84;4957901;28;20050;-70
2022/04/24 07:37:41;;;;;;;1.58;1.10;;;;;;;10.00;87.93;95067.06;4960874;28;20039;-66
2022/04/24 07:40:09;;;;;;;3.15;0.80;;;;;;;10.13;86.69;95067.34;4956420;28;20035;-65
2022/04/24 07:42:55;;;;;;;1.35;0.60;;;;;;;10.45;84.38;95085.47;4971181;28;20056;-69
2022/04/24 07:45:30;;;;;;;1.15;0.50;;;;;;;10.20;86.76;95083.69;4956725;28;20050;-70
2022/04/24 07:47:57;;;;;;;1.98;0.63;;;;;;;10.05;88.04;95076.81;4963220;28;20121;-67
2022/04/24 07:50:26;;;;;;;3.25;0.45;;;;;;;10.08;87.38;95084.19;4957242;28;20054;-67
2022/04/24 07:52:52;;;;;;;2.67;0.63;;;;;;;10.11;86.85;95086.13;4962864;28;20614;-68
2022/04/24 07:55:22;;;;;;;2.35;0.80;;;;;;;10.04;87.28;95080.72;4955036;28;20050;-69
2022/04/24 07:57:49;;;;;;;0.98;0.50;;;;;;;10.02;88.53;95091.28;4962399;28;20047;-68
2022/04/24 08:00:16;;;;;;;1.38;0.57;;;;;;;10.16;86.22;95093.13;4957586;28;20046;-70
2022/04/24 08:02:54;;;;;;;1.70;0.70;;;;;;;10.26;84.95;95094.97;4964435;28;20078;-68
2022/04/24 08:05:34;;;;;;;0.77;0.40;;;;;;;10.24;85.44;95100.84;4965879;28;20050;-70
2022/04/24 08:08:00;;;;;;;;;;;;;;;10.44;83.98;95105.81;4964003;28;20042;-67
2022/04/24 08:10:28;;;;;;;1.80;0.93;;;;;;;10.66;82.06;95100.91;4962037;28;19937;-68
2022/04/24 08:12:54;;;;;;;5.38;2.78;;;;;;;10.51;84.26;95101.06;4962253;28;20118;-68
2022/04/24 08:15:19;;;;;;;4.88;2.53;;;;;;;10.42;83.76;95103.47;4956825;28;20147;-70
2022/04/24 08:17:45;;;;;;;4.93;2.03;;;;;;;10.55;83.69;95101.00;4960719;28;20042;-69
2022/04/24 08:20:13;;;;;;;2.30;1.30;;;;;;;10.64;82.92;95101.34;4948812;28;20118;-68
2022/04/24 08:22:50;;;;;;;3.30;1.88;;;;;;;10.77;83.01;95104.34;4962226;28;20392;-69
2022/04/24 08:25:19;;;;;;;1.75;1.10;;;;;;;10.86;82.52;95112.09;4954961;28;20050;-71
2022/04/24 08:27:45;;;;;;;0.82;0.68;;;;;;;11.06;81.35;95115.00;4960117;28;20043;-67
2022/04/24 08:30:12;;;;;;;0.60;0.35;;;;;;;11.16;77.97;95121.53;4957678;28;20053;-70
2022/04/24 08:32:39;;;;;;;0.93;0.70;;;;;;;10.73;80.36;95121.97;4968253;28;20129;-68
2022/04/24 08:35:06;;;;;;;0.90;0.60;;;;;;;10.72;80.12;95121.22;4957654;28;20121;-70
2022/04/24 08:37:32;;;;;;;2.20;0.40;;;;;;;10.78;81.14;95122.31;4960803;28;20509;-68
2022/04/24 08:39:57;;;;;;;0.98;0.50;;;;;;;10.76;81.48;95132.91;4958970;28;20138;-69
2022/04/24 08:42:23;;;;;;;1.25;0.55;;;;;;;10.91;80.35;95128.03;4956662;28;20565;-68
2022/04/24 08:44:49;;;;;;;0.40;0.40;;;;;;;11.25;79.32;95130.03;4962396;28;20046;-67
2022/04/24 08:47:16;;;;;;;1.05;0.40;;;;;;;11.54;76.22;95127.75;4955422;28;20074;-68
2022/04/24 08:49:42;;;;;;;2.25;0.52;;;;;;;11.69;77.44;95125.59;4961891;28;20050;-69
2022/04/24 08:52:11;;;;;;;1.33;0.45;;;;;;;11.70;76.24;95123.63;4958420;28;20444;-71
2022/04/24 08:54:41;;;;;;;1.03;0.40;;;;;;;11.61;75.59;95129.59;4959593;28;20385;-68
2022/04/24 08:57:11;;;;;;;;;;;;;;;11.48;76.45;95129.38;4959728;28;20066;-67
2022/04/24 08:59:37;;;;;;;0.50;0.50;;;;;;;11.42;76.58;95137.28;4967163;28;19921;-69
2022/04/24 09:02:04;;;;;;;1.00;0.40;;;;;;;11.27;76.17;95135.88;4963990;28;20136;-70
2022/04/24 09:04:34;;;;;;;0.63;0.47;;;;;;;11.34;76.17;95135.81;4955890;28;20051;-67
2022/04/24 09:07:01;;;;;;;0.57;0.40;;;;;;;11.14;76.56;95134.88;4965091;28;20046;-67
2022/04/24 09:09:28;;;;;;;1.70;0.60;;;;;;;11.34;75.27;95137.78;4959409;28;20051;-67
2022/04/24 09:12:10;;;;;;;1.05;0.60;;;;;;;11.51;76.67;95133.28;4957509;28;20507;-67
2022/04/24 09:14:36;;;;;;;1.15;0.50;;;;;;;11.90;75.43;95135.50;4965274;28;20055;-68
2022/04/24 09:17:06;;;;;;;0.77;0.50;;;;;;;12.32;72.57;95143.56;4965189;28;20485;-68
2022/04/24 09:19:32;;;;;;;2.15;0.50;;;;;;;12.26;71.96;95132.25;4964924;28;20039;-68
2022/04/24 09:22:09;;;;;;;2.05;0.40;;;;;;;12.18;70.98;95136.31;4965468;28;20423;-67
2022/04/24 09:24:39;;;;;;;1.70;0.47;;;;;;;11.95;73.59;95140.53;4966773;28;20042;-67
2022/04/24 09:27:05;;;;;;;2.28;0.60;;;;;;;11.96;73.40;95144.06;4961057;28;20043;-68
2022/04/24 09:29:30;;;;;;;4.75;1.65;;;;;;;11.97;73.56;95137.38;4966085;28;20047;-67
2022/04/24 09:31:56;;;;;;;2.30;1.13;;;;;;;11.92;74.19;95146.06;4970512;28;20138;-67
2022/04/24 09:34:29;;;;;;;8.90;2.90;;;;;;;12.03;71.74;95146.72;4973465;28;20065;-68
2022/04/24 09:37:00;;;;;;;6.28;2.15;;;;;;;11.88;72.63;95142.56;4966216;28;20102;-68
2022/04/24 09:39:29;;;;;;;2.83;1.02;;;;;;;12.22;71.49;95150.75;4953651;28;20053;-68
2022/04/24 09:42:08;;;;;;;1.17;0.63;;;;;;;12.91;69.72;95150.41;4956092;28;20148;-68
2022/04/24 09:44:39;;;;;;;1.92;0.80;;;;;;;12.82;70.00;95154.50;4964063;28;20048;-68
2022/04/24 09:47:05;;;;;;;0.47;0.40;;;;;;;13.12;68.36;95158.28;4961225;28;20069;-70
2022/04/24 09:49:38;;;;;;;0.85;0.52;;;;;;;13.03;67.99;95160.03;4964874;28;20039;-66
2022/04/24 09:52:12;;;;;;;0.40;0.40;;;;;;;13.27;67.64;95161.56;4961203;28;20042;-71
2022/04/24 09:54:42;;;;;;;0.88;0.35;;;;;;;13.37;67.24;95170.81;4968786;28;20094;-67
2022/04/24 09:57:13;;;;;;;0.77;0.40;;;;;;;12.96;68.87;95163.66;4958903;28;20038;-67
2022/04/24 09:59:43;;;;;;;1.33;0.60;;;;;;;12.91;70.59;95164.16;4966127;28;20088;-67
2022/04/24 10:02:10;;;;;;;1.20;0.40;;;;;;;12.92;69.46;95161.00;4962945;28;20035;-68
2022/04/24 10:04:38;;;;;;;0.50;0.40;;;;;;;12.51;70.13;95166.78;4963647;28;20039;-67
2022/04/24 10:07:11;;;;;;;0.43;0.40;;;;;;;12.83;70.09;95166.25;4962888;28;20047;-68
2022/04/24 10:09:42;;;;;;;1.15;0.40;;;;;;;13.00;68.60;95167.16;4962668;28;20104;-67
2022/04/24 10:12:10;;;;;;;0.60;0.40;;;;;;;12.76;69.89;95175.38;4959738;28;20039;-68
2022/04/24 10:14:44;;;;;;;0.98;0.40;;;;;;;13.07;67.81;95168.97;4979623;28;20077;-67
2022/04/24 10:17:26;;;;;;;2.83;0.40;;;;;;;12.98;68.96;95175.00;4940696;28;20039;-68
2022/04/24 10:20:11;;;;;;;1.67;0.40;;;;;;;13.23;67.47;95169.06;4965414;28;20047;-68
2022/04/24 10:22:47;;;;;;;1.02;0.50;;;;;;;13.03;66.05;95171.03;4965984;28;20050;-68
2022/04/24 10:25:17;;;;;;;1.05;0.40;;;;;;;13.11;67.30;95177.97;4959392;28;20506;-69
2022/04/24 10:27:44;;;;;;;4.32;0.55;;;;;;;13.17;66.08;95174.28;4962209;28;20046;-68
2022/04/24 10:30:22;;;;;;;20.05;10.98;;;;;;;13.31;66.45;95173.28;4962431;28;20043;-68
2022/04/24 10:32:48;;;;;;;0.40;0.40;;;;;;;13.49;65.43;95178.44;4964276;28;20051;-68
2022/04/24 10:35:16;;;;;;;0.75;0.40;;;;;;;13.70;63.92;95179.22;4959202;28;20492;-68
2022/04/24 10:37:42;;;;;;;0.40;0.40;;;;;;;13.76;63.72;95178.28;4966377;28;20627;-68
2022/04/24 10:40:13;;;;;;;1.85;0.40;;;;;;;14.01;62.88;95176.22;4959816;28;20158;-68
2022/04/24 10:42:39;;;;;;;0.82;0.40;;;;;;;14.31;61.76;95183.41;4964485;28;20288;-67
2022/04/24 10:45:14;;;;;;;0.60;0.30;;;;;;;13.90;62.04;95171.72;4958155;28;20555;-66
2022/04/24 10:48:05;;;;;;;0.47;0.30;;;;;;;13.81;62.34;95176.22;4963314;28;20043;-67
2022/04/24 10:50:30;;;;;;;0.98;0.35;;;;;;;13.51;62.02;95170.53;4961829;28;20093;-67
2022/04/24 10:52:56;;;;;;;1.63;0.30;;;;;;;13.67;62.72;95172.59;4971606;28;20074;-67
2022/04/24 10:55:26;;;;;;;0.40;0.28;;;;;;;13.76;61.84;95178.28;4958055;28;20050;-67
2022/04/24 10:57:55;;;;;;;0.70;0.32;;;;;;;14.02;61.28;95169.50;4965774;28;20201;-67
2022/04/24 11:00:26;;;;;;;2.42;1.02;;;;;;;13.65;61.48;95176.94;4961725;28;20089;-67
2022/04/24 11:02:52;;;;;;;1.33;0.47;;;;;;;13.37;61.33;95179.84;4963970;28;20042;-67
2022/04/24 11:05:22;;;;;;;1.05;0.40;;;;;;;13.22;61.83;95189.53;4956655;28;20336;-67
2022/04/24 11:08:00;;;;;;;0.40;0.30;;;;;;;13.09;61.75;95189.38;4964591;28;20046;-66
2022/04/24 11:10:26;;;;;;;3.40;0.40;;;;;;;13.57;61.25;95184.56;4957905;28;20078;-67
2022/04/24 11:12:54;;;;;;;0.65;0.40;;;;;;;13.86;61.88;95189.50;4979110;28;20081;-67
2022/04/24 11:15:19;;;;;;;0.30;0.30;;;;;;;13.97;61.21;95184.53;4957636;28;20050;-66
2022/04/24 11:17:45;;;;;;;0.65;0.30;;;;;;;13.49;61.74;95183.19;4967117;28;20045;-67
2022/04/24 11:20:13;;;;;;;0.60;0.35;;;;;;;13.76;62.12;95183.78;4958556;28;20049;-67
2022/04/24 11:22:45;;;;;;;3.72;0.90;;;;;;;13.81;62.20;95193.53;4963477;28;20041;-68
2022/04/24 11:25:15;;;;;;;1.85;0.40;;;;;;;13.49;63.33;95191.44;4958875;28;20046;-69
2022/04/24 11:27:43;;;;;;;2.10;0.52;;;;;;;13.46;63.98;95195.00;4961018;28;20516;-68
2022/04/24 11:30:20;;;;;;;0.98;0.57;;;;;;;13.37;63.08;95206.56;4959011;28;20047;-67